createdAt,value
2022-09-05T00:04:57.831Z,15.00
2022-09-05T00:10:12.970Z,14.90
2022-09-05T00:15:26.046Z,14.70
2022-09-05T00:24:20.904Z,14.70
2022-09-05T00:26:17.249Z,14.70
2022-09-05T00:31:54.977Z,14.60
2022-09-05T00:37:00.096Z,14.50
2022-09-05T00:42:10.777Z,14.60
2022-09-05T00:47:26.316Z,14.80
2022-09-05T00:52:36.115Z,14.90
2022-09-05T00:58:00.624Z,15.00
2022-09-05T01:03:21.096Z,15.10
2022-09-05T01:08:40.992Z,15.10
2022-09-05T01:13:50.442Z,15.20
2022-09-05T01:19:05.790Z,15.20
2022-09-05T01:24:27.579Z,15.40
2022-09-05T01:29:38.231Z,15.40
2022-09-05T01:34:56.989Z,15.50
2022-09-05T01:40:15.892Z,15.40
2022-09-05T01:45:30.781Z,15.40
2022-09-05T01:50:54.388Z,15.30
2022-09-05T01:56:25.206Z,15.20
2022-09-05T02:01:41.020Z,15.00
2022-09-05T02:06:55.089Z,14.90
2022-09-05T02:12:02.899Z,14.90
2022-09-05T02:17:49.599Z,15.00
2022-09-05T02:22:58.288Z,14.90
2022-09-05T02:28:09.619Z,14.90
2022-09-05T02:33:21.889Z,14.70
2022-09-05T02:43:51.842Z,14.50
2022-09-05T02:45:11.900Z,14.50
2022-09-05T02:50:46.731Z,14.20
2022-09-05T02:58:04.979Z,14.40
2022-09-05T03:00:42.484Z,14.30
2022-09-05T03:05:56.945Z,14.20
2022-09-05T03:11:37.023Z,14.00
2022-09-05T03:17:40.718Z,14.00
2022-09-05T03:23:07.367Z,13.90
2022-09-05T03:28:43.698Z,14.00
2022-09-05T03:34:30.484Z,13.80
2022-09-05T03:40:15.675Z,13.60
2022-09-05T03:45:49.627Z,13.60
2022-09-05T03:57:06.747Z,13.60
2022-09-05T03:57:14.940Z,13.70
2022-09-05T04:04:30.476Z,13.50
2022-09-05T04:08:17.537Z,13.40
2022-09-05T04:13:20.946Z,13.30
2022-09-05T04:18:33.423Z,13.10
2022-09-05T04:23:57.809Z,13.20
2022-09-05T04:29:15.939Z,13.20
2022-09-05T04:34:34.154Z,13.20
2022-09-05T04:39:37.457Z,13.00
2022-09-05T04:44:47.749Z,13.10
2022-09-05T04:49:57.194Z,13.20
2022-09-05T04:55:07.363Z,13.30
2022-09-05T05:03:05.594Z,13.40
2022-09-05T05:06:18.909Z,13.50
2022-09-05T05:16:09.230Z,13.70
2022-09-05T05:18:11.321Z,14.00
2022-09-05T05:22:19.320Z,14.20
2022-09-05T05:27:27.876Z,14.50
2022-09-05T05:32:46.165Z,14.70
2022-09-05T05:37:55.229Z,14.90
2022-09-05T05:43:15.139Z,14.90
2022-09-05T05:48:34.982Z,14.90
2022-09-05T05:53:52.148Z,14.90
2022-09-05T05:59:30.424Z,15.30
2022-09-05T06:05:10.676Z,15.90
2022-09-05T06:14:26.148Z,16.00
2022-09-05T06:16:27.220Z,16.20
2022-09-05T06:22:13.774Z,16.90
2022-09-05T06:28:05.565Z,19.20
2022-09-05T06:33:20.824Z,20.60
2022-09-05T06:38:39.331Z,21.90
2022-09-05T06:44:23.851Z,21.60
2022-09-05T06:49:37.443Z,21.60
2022-09-05T06:55:11.751Z,21.30
2022-09-05T07:00:23.168Z,21.20
2022-09-05T07:05:39.888Z,21.20
2022-09-05T07:10:58.267Z,20.90
2022-09-05T07:16:29.942Z,20.80
2022-09-05T07:21:49.226Z,20.90
2022-09-05T07:26:58.815Z,20.60
2022-09-05T07:32:06.399Z,21.40
2022-09-05T07:37:14.916Z,21.60
2022-09-05T07:42:25.301Z,20.70
2022-09-05T07:47:31.491Z,20.40
2022-09-05T07:56:47.244Z,20.90
2022-09-05T07:58:08.829Z,21.70
2022-09-05T08:03:13.901Z,21.90
2022-09-05T08:08:19.395Z,22.40
2022-09-05T08:13:42.882Z,23.70
2022-09-05T08:18:54.220Z,24.20
2022-09-05T08:24:02.361Z,23.40
2022-09-05T08:29:30.930Z,23.00
2022-09-05T08:34:44.786Z,22.30
2022-09-05T08:39:54.324Z,22.70
2022-09-05T08:46:43.350Z,24.20
2022-09-05T08:51:11.170Z,25.80
2022-09-05T08:56:21.304Z,24.80
2022-09-05T09:01:44.570Z,25.50
2022-09-05T09:07:48.099Z,24.90
2022-09-05T09:13:03.624Z,24.90
2022-09-05T09:18:15.844Z,25.30
2022-09-05T09:23:42.648Z,24.60
2022-09-05T09:28:51.943Z,25.40
2022-09-05T09:34:24.275Z,26.00
2022-09-05T09:39:38.151Z,26.20
2022-09-05T09:45:28.719Z,25.50
2022-09-05T09:50:59.405Z,25.90
2022-09-05T09:56:29.009Z,26.10
2022-09-05T10:01:39.011Z,26.20
2022-09-05T10:11:09.180Z,25.50
2022-09-05T10:13:08.323Z,25.70
2022-09-05T10:18:39.921Z,26.90
2022-09-05T10:24:07.827Z,26.80
2022-09-05T10:29:36.891Z,26.30
2022-09-05T10:35:08.884Z,26.20
2022-09-05T10:40:14.395Z,26.70
2022-09-05T10:45:33.460Z,26.90
2022-09-05T10:50:44.611Z,26.50
2022-09-05T10:56:02.481Z,27.10
2022-09-05T11:02:26.443Z,26.50
2022-09-05T11:06:49.939Z,26.30
2022-09-05T11:12:04.661Z,25.90
2022-09-05T11:17:16.778Z,25.70
2022-09-05T11:22:24.582Z,26.10
2022-09-05T11:27:35.216Z,26.00
2022-09-05T11:39:45.624Z,26.00
2022-09-05T11:40:02.118Z,26.10
2022-09-05T11:44:35.679Z,26.50
2022-09-05T11:50:09.082Z,26.20
2022-09-05T11:55:49.490Z,26.20
2022-09-05T12:01:40.977Z,26.40
2022-09-05T12:06:49.663Z,26.60
2022-09-05T12:12:19.384Z,26.10
2022-09-05T12:17:50.901Z,26.30
2022-09-05T12:23:01.430Z,26.80
2022-09-05T12:28:31.412Z,26.30
2022-09-05T12:36:02.251Z,26.80
2022-09-05T12:41:32.746Z,27.40
2022-09-05T12:44:47.241Z,26.80
2022-09-05T12:50:03.447Z,26.40
2022-09-05T12:55:26.064Z,26.50
2022-09-05T13:03:03.376Z,27.30
2022-09-05T13:06:11.586Z,27.30
2022-09-05T13:14:46.679Z,27.50
2022-09-05T13:16:57.282Z,26.80
2022-09-05T13:22:04.082Z,27.00
2022-09-05T13:27:13.840Z,26.40
2022-09-05T13:37:59.804Z,26.50
2022-09-05T13:38:04.234Z,26.00
2022-09-05T13:43:13.836Z,26.30
2022-09-05T13:49:23.965Z,25.70
2022-09-05T13:54:24.275Z,26.00
2022-09-05T13:59:28.845Z,25.60
2022-09-05T14:05:11.068Z,24.70
2022-09-05T14:10:48.661Z,25.10
2022-09-05T14:15:58.799Z,26.00
2022-09-05T14:21:15.822Z,25.50
2022-09-05T14:26:26.661Z,24.20
2022-09-05T14:37:41.027Z,24.40
2022-09-05T14:37:53.460Z,25.10
2022-09-05T14:42:54.647Z,25.50
2022-09-05T14:48:13.266Z,25.20
2022-09-05T15:02:45.352Z,25.60
2022-09-05T15:12:14.821Z,25.00
2022-09-05T15:15:00.504Z,25.30
2022-09-05T15:20:08.907Z,25.50
2022-09-05T15:25:18.900Z,25.40
2022-09-05T15:30:29.633Z,25.30
2022-09-05T15:35:42.473Z,25.40
2022-09-05T15:40:45.591Z,25.50
2022-09-05T15:45:50.143Z,25.10
2022-09-05T15:50:55.625Z,24.40
2022-09-05T15:56:13.990Z,23.80
2022-09-05T16:01:48.573Z,23.50
2022-09-05T16:10:35.549Z,23.30
2022-09-05T16:12:27.635Z,23.40
2022-09-05T16:23:15.489Z,23.30
2022-09-05T16:23:34.061Z,23.10
2022-09-05T16:28:38.428Z,23.10
2022-09-05T16:33:43.660Z,22.80
2022-09-05T16:38:50.691Z,22.70
2022-09-05T16:43:58.148Z,22.50
2022-09-05T16:49:12.068Z,22.50
2022-09-05T16:54:21.900Z,22.30
2022-09-05T16:59:28.447Z,22.20
2022-09-05T17:05:02.990Z,22.10
2022-09-05T17:10:11.601Z,22.00
2022-09-05T17:15:17.364Z,21.80
2022-09-05T17:20:24.375Z,21.80
2022-09-05T17:29:49.900Z,21.70
2022-09-05T17:36:42.327Z,21.40
2022-09-05T17:42:05.122Z,21.20
2022-09-05T17:47:14.720Z,21.00
2022-09-05T17:52:23.357Z,20.70
2022-09-05T17:57:41.447Z,20.60
2022-09-05T18:02:54.595Z,20.50
2022-09-05T18:08:00.323Z,20.30
2022-09-05T18:19:33.035Z,19.90
2022-09-05T18:24:12.053Z,19.80
2022-09-05T18:29:28.690Z,19.50
2022-09-05T18:35:10.282Z,19.10
2022-09-05T18:40:36.831Z,18.90
2022-09-05T18:45:52.201Z,18.80
2022-09-05T18:51:15.009Z,18.80
2022-09-05T18:57:02.983Z,18.40
2022-09-05T19:02:04.955Z,18.60
2022-09-05T19:07:11.706Z,18.60
2022-09-05T19:12:34.964Z,18.10
2022-09-05T19:17:47.172Z,18.10
2022-09-05T19:23:10.443Z,17.90
2022-09-05T19:33:59.744Z,17.90
2022-09-05T19:37:15.603Z,17.80
2022-09-05T19:41:51.197Z,17.80
2022-09-05T19:47:40.244Z,17.70
2022-09-05T19:50:06.599Z,17.70
2022-09-05T19:55:21.968Z,17.50
2022-09-05T20:00:28.391Z,17.20
2022-09-05T20:05:32.247Z,17.10
2022-09-05T20:10:36.365Z,16.90
2022-09-05T20:15:42.096Z,16.70
2022-09-05T20:20:52.418Z,16.80
2022-09-05T20:25:57.817Z,16.90
2022-09-05T20:31:08.294Z,16.70
2022-09-05T20:42:52.461Z,16.80
2022-09-05T20:43:18.922Z,16.70
2022-09-05T20:50:58.295Z,16.50
2022-09-05T20:54:17.179Z,16.50
2022-09-05T20:57:57.035Z,16.50
2022-09-05T21:03:01.950Z,16.50
2022-09-05T21:08:20.968Z,16.40
2022-09-05T21:13:27.083Z,16.50
2022-09-05T21:18:33.876Z,16.50
2022-09-05T21:23:38.514Z,16.60
2022-09-05T21:29:04.220Z,16.60
2022-09-05T21:34:13.151Z,16.70
2022-09-05T21:39:18.631Z,16.50
2022-09-05T21:47:44.090Z,16.60
2022-09-05T21:49:46.445Z,16.50
2022-09-05T21:59:18.876Z,16.50
2022-09-05T22:00:17.151Z,16.60
2022-09-05T22:05:25.282Z,16.60
2022-09-05T22:10:35.687Z,16.70
2022-09-05T22:15:59.304Z,16.50
2022-09-05T22:21:34.182Z,16.50
2022-09-05T22:26:35.782Z,16.40
2022-09-05T22:31:39.403Z,16.20
2022-09-05T22:36:44.087Z,16.20
2022-09-05T22:41:47.230Z,16.20
2022-09-05T22:46:52.451Z,16.10
2022-09-05T22:51:56.820Z,16.10
2022-09-05T22:56:59.844Z,16.00
2022-09-05T23:02:02.976Z,16.00
2022-09-05T23:07:07.403Z,15.90
2022-09-05T23:12:10.459Z,15.90
2022-09-05T23:17:13.603Z,15.90
2022-09-05T23:22:18.035Z,15.80
2022-09-05T23:27:21.258Z,15.90
2022-09-05T23:32:24.423Z,15.90
2022-09-05T23:37:29.022Z,15.80
2022-09-05T23:42:32.066Z,15.80
2022-09-05T23:47:35.513Z,15.70
2022-09-05T23:52:42.291Z,15.80
2022-09-05T23:57:46.997Z,15.80
